createdAt,value
2022-08-30T00:00:13.388Z,18.90
2022-08-30T00:02:40.213Z,18.90
2022-08-30T00:05:07.583Z,18.90
2022-08-30T00:07:34.409Z,18.80
2022-08-30T00:10:01.135Z,18.80
2022-08-30T00:12:28.529Z,18.80
2022-08-30T00:14:55.660Z,18.90
2022-08-30T00:17:23.803Z,18.80
2022-08-30T00:19:50.531Z,18.80
2022-08-30T00:22:17.291Z,18.70
2022-08-30T00:24:44.096Z,18.70
2022-08-30T00:27:10.874Z,18.70
2022-08-30T00:29:37.615Z,18.70
2022-08-30T00:32:04.495Z,18.70
2022-08-30T00:34:32.576Z,18.60
2022-08-30T00:36:59.392Z,18.60
2022-08-30T00:39:26.267Z,18.60
2022-08-30T00:41:52.974Z,18.60
2022-08-30T00:44:19.872Z,18.50
2022-08-30T00:46:46.612Z,18.50
2022-08-30T00:49:14.240Z,18.50
2022-08-30T00:51:42.646Z,18.40
2022-08-30T00:54:10.114Z,18.40
2022-08-30T00:56:36.944Z,18.40
2022-08-30T00:59:06.508Z,18.40
2022-08-30T01:01:34.341Z,18.40
2022-08-30T01:04:05.329Z,18.40
2022-08-30T01:06:32.521Z,18.40
2022-08-30T01:09:02.667Z,18.30
2022-08-30T01:11:31.301Z,18.40
2022-08-30T01:13:59.247Z,18.30
2022-08-30T01:16:27.257Z,18.30
2022-08-30T01:18:59.948Z,18.30
2022-08-30T01:21:32.494Z,18.30
2022-08-30T01:24:02.005Z,18.30
2022-08-30T01:26:30.059Z,18.30
2022-08-30T01:29:01.171Z,18.30
2022-08-30T01:31:28.162Z,18.20
2022-08-30T01:33:55.016Z,18.20
2022-08-30T01:36:22.295Z,18.20
2022-08-30T01:38:51.922Z,18.20
2022-08-30T01:41:22.906Z,18.10
2022-08-30T01:43:51.375Z,18.10
2022-08-30T01:46:20.619Z,18.10
2022-08-30T01:48:52.967Z,18.10
2022-08-30T01:51:23.283Z,18.10
2022-08-30T01:53:50.214Z,18.00
2022-08-30T01:56:17.051Z,18.00
2022-08-30T01:58:45.536Z,17.90
2022-08-30T02:01:16.205Z,17.80
2022-08-30T02:03:44.623Z,17.80
2022-08-30T02:06:14.302Z,17.80
2022-08-30T02:08:41.740Z,17.80
2022-08-30T02:11:09.184Z,17.80
2022-08-30T02:13:36.547Z,17.80
2022-08-30T02:16:05.512Z,17.90
2022-08-30T02:18:33.758Z,17.90
2022-08-30T02:21:00.926Z,17.90
2022-08-30T02:23:27.842Z,17.90
2022-08-30T02:25:54.791Z,17.90
2022-08-30T02:28:21.639Z,17.80
2022-08-30T02:30:52.117Z,17.80
2022-08-30T02:33:20.347Z,17.80
2022-08-30T02:35:47.089Z,17.90
2022-08-30T02:38:13.861Z,17.80
2022-08-30T02:40:40.707Z,17.80
2022-08-30T02:43:07.503Z,17.80
2022-08-30T02:45:34.370Z,17.70
2022-08-30T02:48:01.161Z,17.70
2022-08-30T02:50:29.234Z,17.70
2022-08-30T02:52:55.983Z,17.80
2022-08-30T02:55:23.380Z,17.80
2022-08-30T02:57:50.141Z,17.80
2022-08-30T03:00:19.549Z,17.70
2022-08-30T03:02:46.934Z,17.70
2022-08-30T03:05:15.639Z,17.70
2022-08-30T03:07:44.638Z,17.80
2022-08-30T03:10:11.661Z,17.80
2022-08-30T03:12:41.130Z,17.70
2022-08-30T03:15:09.620Z,17.60
2022-08-30T03:17:36.432Z,17.60
2022-08-30T03:20:04.858Z,17.60
2022-08-30T03:22:31.721Z,17.50
2022-08-30T03:24:59.854Z,17.60
2022-08-30T03:27:27.581Z,17.50
2022-08-30T03:29:54.964Z,17.50
2022-08-30T03:32:22.169Z,17.50
2022-08-30T03:34:49.374Z,17.50
2022-08-30T03:37:16.568Z,17.50
2022-08-30T03:39:43.434Z,17.50
2022-08-30T03:42:11.796Z,17.50
2022-08-30T03:44:38.626Z,17.50
2022-08-30T03:47:05.983Z,17.40
2022-08-30T03:49:32.755Z,17.40
2022-08-30T03:51:59.659Z,17.40
2022-08-30T03:54:26.482Z,17.40
2022-08-30T03:56:53.225Z,17.40
2022-08-30T03:59:21.574Z,17.30
2022-08-30T04:01:48.419Z,17.30
2022-08-30T04:04:20.168Z,17.30
2022-08-30T04:06:48.165Z,17.30
2022-08-30T04:09:14.942Z,17.30
2022-08-30T04:11:41.734Z,17.30
2022-08-30T04:14:08.650Z,17.30
2022-08-30T04:16:36.791Z,17.30
2022-08-30T04:19:04.167Z,17.30
2022-08-30T04:21:31.178Z,17.20
2022-08-30T04:23:58.047Z,17.20
2022-08-30T04:26:29.294Z,17.20
2022-08-30T04:28:56.541Z,17.20
2022-08-30T04:31:23.655Z,17.10
2022-08-30T04:33:51.827Z,17.10
2022-08-30T04:36:18.667Z,17.20
2022-08-30T04:38:45.567Z,17.10
2022-08-30T04:41:14.887Z,17.10
2022-08-30T04:43:41.698Z,17.10
2022-08-30T04:46:09.462Z,17.10
2022-08-30T04:48:37.481Z,17.00
2022-08-30T04:51:07.611Z,17.00
2022-08-30T04:53:34.657Z,17.00
2022-08-30T04:56:01.414Z,17.00
2022-08-30T04:58:28.183Z,16.90
2022-08-30T05:00:55.123Z,17.00
2022-08-30T05:03:21.990Z,17.00
2022-08-30T05:05:49.040Z,16.90
2022-08-30T05:08:22.107Z,16.90
2022-08-30T05:10:53.557Z,16.90
2022-08-30T05:13:35.001Z,16.90
2022-08-30T05:16:04.187Z,16.60
2022-08-30T05:18:31.133Z,16.60
2022-08-30T05:21:06.087Z,16.70
2022-08-30T05:23:34.263Z,16.80
2022-08-30T05:26:05.706Z,16.90
2022-08-30T05:28:32.460Z,16.90
2022-08-30T05:30:59.232Z,17.00
2022-08-30T05:33:26.002Z,16.90
2022-08-30T05:35:53.504Z,16.90
2022-08-30T05:38:20.306Z,16.90
2022-08-30T05:40:50.377Z,17.00
2022-08-30T05:43:18.505Z,16.90
2022-08-30T05:45:45.252Z,17.00
2022-08-30T05:48:13.011Z,17.10
2022-08-30T05:50:40.052Z,17.10
2022-08-30T05:53:06.961Z,17.20
2022-08-30T05:55:33.875Z,17.20
2022-08-30T05:58:01.957Z,17.20
2022-08-30T06:00:28.738Z,17.20
2022-08-30T06:02:55.608Z,17.30
2022-08-30T06:05:22.660Z,17.40
2022-08-30T06:07:49.610Z,17.40
2022-08-30T06:10:17.282Z,17.30
2022-08-30T06:12:44.291Z,17.50
2022-08-30T06:15:13.181Z,17.50
2022-08-30T06:17:39.943Z,17.50
2022-08-30T06:20:07.813Z,17.50
2022-08-30T06:22:34.620Z,17.60
2022-08-30T06:25:01.413Z,17.50
2022-08-30T06:27:28.176Z,17.60
2022-08-30T06:29:55.047Z,17.70
2022-08-30T06:32:23.499Z,17.80
2022-08-30T06:34:50.300Z,17.80
2022-08-30T06:37:29.273Z,17.90
2022-08-30T06:39:56.965Z,18.00
2022-08-30T06:42:23.716Z,18.10
2022-08-30T06:44:50.455Z,18.20
2022-08-30T06:47:18.295Z,18.30
2022-08-30T06:49:46.372Z,18.30
2022-08-30T06:52:13.095Z,18.40
2022-08-30T06:54:39.884Z,18.40
2022-08-30T06:57:06.678Z,18.40
2022-08-30T06:59:34.922Z,18.50
2022-08-30T07:02:01.753Z,18.50
2022-08-30T07:04:29.300Z,18.60
2022-08-30T07:06:57.447Z,18.60
2022-08-30T07:09:24.596Z,18.60
2022-08-30T07:11:52.579Z,18.70
2022-08-30T07:14:19.783Z,18.70
2022-08-30T07:16:47.040Z,18.70
2022-08-30T07:19:20.788Z,18.80
2022-08-30T07:21:49.357Z,18.80
2022-08-30T07:24:18.935Z,18.80
2022-08-30T07:26:48.319Z,18.80
2022-08-30T07:29:15.427Z,18.90
2022-08-30T07:31:42.642Z,18.90
2022-08-30T07:34:10.461Z,18.90
2022-08-30T07:36:38.853Z,18.90
2022-08-30T07:39:06.257Z,19.00
2022-08-30T07:41:36.269Z,19.00
2022-08-30T07:44:03.695Z,19.00
2022-08-30T07:46:30.544Z,19.00
2022-08-30T07:48:59.918Z,19.10
2022-08-30T07:51:29.204Z,19.20
2022-08-30T07:53:57.197Z,19.20
2022-08-30T07:56:24.973Z,19.20
2022-08-30T07:58:53.787Z,19.20
2022-08-30T08:01:22.089Z,19.30
2022-08-30T08:03:49.370Z,19.30
2022-08-30T08:06:19.019Z,19.30
2022-08-30T08:08:45.989Z,19.40
2022-08-30T08:11:16.521Z,19.40
2022-08-30T08:13:52.823Z,19.40
2022-08-30T08:16:23.998Z,19.50
2022-08-30T08:18:51.305Z,19.50
2022-08-30T08:21:18.160Z,19.50
2022-08-30T08:23:44.948Z,19.60
2022-08-30T08:26:11.837Z,19.60
2022-08-30T08:28:38.590Z,19.60
2022-08-30T08:31:14.439Z,19.70
2022-08-30T08:33:42.587Z,19.70
2022-08-30T08:36:09.681Z,19.70
2022-08-30T08:38:36.659Z,19.70
2022-08-30T08:41:12.808Z,19.80
2022-08-30T08:43:40.408Z,19.70
2022-08-30T08:46:13.547Z,19.80
2022-08-30T08:48:59.024Z,19.80
2022-08-30T08:51:28.795Z,19.90
2022-08-30T08:54:00.858Z,19.90
2022-08-30T08:56:27.887Z,19.90
2022-08-30T08:58:56.589Z,19.90
2022-08-30T09:01:26.363Z,20.00
2022-08-30T09:03:57.139Z,20.00
2022-08-30T09:06:36.978Z,20.00
2022-08-30T09:09:06.454Z,20.00
2022-08-30T09:11:35.705Z,20.10
2022-08-30T09:14:02.506Z,20.10
2022-08-30T09:16:49.516Z,20.10
2022-08-30T09:19:34.628Z,20.10
2022-08-30T09:22:05.198Z,20.20
2022-08-30T09:24:41.066Z,20.20
2022-08-30T09:27:23.876Z,20.30
2022-08-30T09:30:05.078Z,20.30
2022-08-30T09:32:37.735Z,20.30
2022-08-30T09:35:10.412Z,20.30
2022-08-30T09:37:40.470Z,20.30
2022-08-30T09:40:14.687Z,20.30
2022-08-30T09:42:42.004Z,20.40
2022-08-30T09:45:20.404Z,20.40
2022-08-30T09:47:47.175Z,20.40
2022-08-30T09:50:18.617Z,20.40
2022-08-30T09:52:59.039Z,20.50
2022-08-30T09:55:38.744Z,20.50
2022-08-30T09:58:12.928Z,20.50
2022-08-30T10:00:43.299Z,20.50
2022-08-30T10:03:40.358Z,20.60
2022-08-30T10:06:18.171Z,20.60
2022-08-30T10:08:59.424Z,20.60
2022-08-30T10:11:31.440Z,20.70
2022-08-30T10:14:34.519Z,20.70
2022-08-30T10:17:11.050Z,20.70
2022-08-30T10:19:56.517Z,20.80
2022-08-30T10:22:30.855Z,20.80
2022-08-30T10:25:05.107Z,20.80
2022-08-30T10:27:36.243Z,20.80
2022-08-30T10:30:07.115Z,20.80
2022-08-30T10:32:38.991Z,20.90
2022-08-30T10:35:09.539Z,20.90
2022-08-30T10:37:42.395Z,20.90
2022-08-30T10:40:14.694Z,21.00
2022-08-30T10:42:41.491Z,21.00
2022-08-30T10:45:13.290Z,21.00
2022-08-30T10:47:44.576Z,21.10
2022-08-30T10:50:16.235Z,21.10
2022-08-30T10:52:53.045Z,21.10
2022-08-30T10:55:24.471Z,21.20
2022-08-30T10:57:52.954Z,21.20
2022-08-30T11:00:26.474Z,21.20
2022-08-30T11:03:34.845Z,21.20
2022-08-30T11:06:14.086Z,21.20
2022-08-30T11:09:16.398Z,21.20
2022-08-30T11:12:01.036Z,21.30
2022-08-30T11:14:29.511Z,21.30
2022-08-30T11:17:00.176Z,21.30
2022-08-30T11:19:33.163Z,21.30
2022-08-30T11:22:10.806Z,21.30
2022-08-30T11:27:55.858Z,21.40
2022-08-30T11:30:51.208Z,21.40
2022-08-30T11:33:43.411Z,21.40
2022-08-30T11:37:09.816Z,21.50
2022-08-30T11:39:54.862Z,21.50
2022-08-30T11:42:36.962Z,21.50
2022-08-30T11:45:44.894Z,21.60
2022-08-30T11:48:53.808Z,21.60
2022-08-30T11:51:39.439Z,21.60
2022-08-30T11:54:17.668Z,21.70
2022-08-30T11:56:54.458Z,21.70
2022-08-30T11:59:30.233Z,21.70
2022-08-30T12:01:57.495Z,21.70
2022-08-30T12:04:45.226Z,21.80
2022-08-30T12:07:35.844Z,21.80
2022-08-30T12:10:09.341Z,21.80
2022-08-30T12:13:01.713Z,21.80
2022-08-30T12:15:58.221Z,21.90
2022-08-30T12:18:38.040Z,21.90
2022-08-30T12:21:13.549Z,21.90
2022-08-30T12:23:48.384Z,22.00
2022-08-30T12:26:28.730Z,22.00
2022-08-30T12:29:10.149Z,22.00
2022-08-30T12:31:41.047Z,22.00
2022-08-30T12:34:08.943Z,22.00
2022-08-30T12:36:39.348Z,22.10
2022-08-30T12:39:08.761Z,22.10
2022-08-30T12:41:36.469Z,22.10
2022-08-30T12:44:16.868Z,22.20
2022-08-30T12:46:48.007Z,22.20
2022-08-30T12:49:17.360Z,22.20
2022-08-30T12:51:44.647Z,22.20
2022-08-30T12:54:20.251Z,22.20
2022-08-30T12:56:56.559Z,22.30
2022-08-30T12:59:48.820Z,22.30
2022-08-30T13:02:22.677Z,22.30
2022-08-30T13:04:51.088Z,22.40
2022-08-30T13:07:39.055Z,22.30
2022-08-30T13:10:14.253Z,22.40
2022-08-30T13:12:41.133Z,22.40
2022-08-30T13:15:19.907Z,22.40
2022-08-30T13:17:47.239Z,22.40
2022-08-30T13:20:25.528Z,22.40
2022-08-30T13:23:05.459Z,22.40
2022-08-30T13:25:33.055Z,22.40
2022-08-30T13:28:01.470Z,22.40
2022-08-30T13:30:30.115Z,22.50
2022-08-30T13:32:57.910Z,22.50
2022-08-30T13:35:25.227Z,22.50
2022-08-30T13:37:52.235Z,22.50
2022-08-30T13:40:21.181Z,22.50
2022-08-30T13:42:48.715Z,22.50
2022-08-30T13:48:06.866Z,22.50
2022-08-30T13:50:33.612Z,22.60
2022-08-30T13:53:00.519Z,22.60
2022-08-30T13:55:28.346Z,22.60
2022-08-30T13:57:56.490Z,22.60
2022-08-30T14:00:24.849Z,22.60
2022-08-30T14:02:54.678Z,22.70
2022-08-30T14:11:01.821Z,22.70
2022-08-30T14:13:29.588Z,22.70
2022-08-30T14:18:46.816Z,22.70
2022-08-30T14:21:15.621Z,22.70
2022-08-30T14:23:44.242Z,22.80
2022-08-30T14:26:22.351Z,22.80
2022-08-30T14:28:51.569Z,22.80
2022-08-30T14:31:20.184Z,22.80
2022-08-30T14:33:48.149Z,22.80
2022-08-30T14:36:18.301Z,22.80
2022-08-30T14:38:48.572Z,22.80
2022-08-30T14:41:15.852Z,22.80
2022-08-30T14:43:42.626Z,22.80
2022-08-30T14:46:10.732Z,22.80
2022-08-30T14:48:38.647Z,22.80
2022-08-30T14:51:12.522Z,22.80
2022-08-30T14:53:41.051Z,22.90
2022-08-30T14:56:09.486Z,22.90
2022-08-30T14:58:36.221Z,22.90
2022-08-30T15:01:06.784Z,23.00
2022-08-30T15:03:33.639Z,23.00
2022-08-30T15:06:01.395Z,23.00
2022-08-30T15:08:28.371Z,23.00
2022-08-30T15:10:56.572Z,23.00
2022-08-30T15:13:23.319Z,23.10
2022-08-30T15:15:50.190Z,23.10
2022-08-30T15:18:17.811Z,23.10
2022-08-30T15:20:46.551Z,23.10
2022-08-30T15:23:13.385Z,23.10
2022-08-30T15:25:44.068Z,23.20
2022-08-30T15:28:12.205Z,23.20
2022-08-30T15:30:38.928Z,23.60
2022-08-30T15:33:06.541Z,23.80
2022-08-30T15:35:33.551Z,23.60
2022-08-30T15:38:00.319Z,23.50
2022-08-30T15:40:27.169Z,23.50
2022-08-30T15:42:54.286Z,23.50
2022-08-30T15:45:22.469Z,23.50
2022-08-30T15:47:49.622Z,23.40
2022-08-30T15:50:16.633Z,23.50
2022-08-30T15:52:43.383Z,23.40
2022-08-30T15:55:10.287Z,23.50
2022-08-30T15:57:37.033Z,23.50
2022-08-30T16:00:06.428Z,23.50
2022-08-30T16:02:35.096Z,23.60
2022-08-30T16:05:02.133Z,23.50
2022-08-30T16:07:29.107Z,23.50
2022-08-30T16:09:55.933Z,23.50
2022-08-30T16:12:23.641Z,23.60
2022-08-30T16:14:50.652Z,23.60
2022-08-30T16:17:18.270Z,23.60
2022-08-30T16:19:46.504Z,23.60
2022-08-30T16:22:14.165Z,23.60
2022-08-30T16:24:48.870Z,23.60
2022-08-30T16:27:15.707Z,23.50
2022-08-30T16:29:43.159Z,23.60
2022-08-30T16:32:09.922Z,23.50
2022-08-30T16:34:37.038Z,23.50
2022-08-30T16:37:05.392Z,23.50
2022-08-30T16:39:32.252Z,23.50
2022-08-30T16:41:59.415Z,23.50
2022-08-30T16:44:29.358Z,23.50
2022-08-30T16:46:56.803Z,23.50
2022-08-30T16:49:25.359Z,23.50
2022-08-30T16:51:53.228Z,23.50
2022-08-30T16:54:21.657Z,23.40
2022-08-30T16:56:48.513Z,23.40
2022-08-30T16:59:15.894Z,23.40
2022-08-30T17:01:42.750Z,23.40
2022-08-30T17:04:11.229Z,23.30
2022-08-30T17:06:40.123Z,23.40
2022-08-30T17:09:08.246Z,23.40
2022-08-30T17:11:38.248Z,23.40
2022-08-30T17:14:07.505Z,23.40
2022-08-30T17:16:36.923Z,23.40
2022-08-30T17:19:05.136Z,23.40
2022-08-30T17:21:32.506Z,23.40
2022-08-30T17:24:02.177Z,23.30
2022-08-30T17:26:30.099Z,23.40
2022-08-30T17:28:58.378Z,23.30
2022-08-30T17:31:25.658Z,23.30
2022-08-30T17:33:52.487Z,23.30
2022-08-30T17:36:19.280Z,23.30
2022-08-30T17:38:47.709Z,23.30
2022-08-30T17:41:15.864Z,23.30
2022-08-30T17:43:42.988Z,23.20
2022-08-30T17:46:12.975Z,23.20
2022-08-30T17:48:40.535Z,23.20
2022-08-30T17:51:07.835Z,23.30
2022-08-30T17:53:35.270Z,23.30
2022-08-30T17:56:02.674Z,23.20
2022-08-30T17:58:29.686Z,23.20
2022-08-30T18:01:05.803Z,23.20
2022-08-30T18:03:40.415Z,23.20
2022-08-30T18:06:07.958Z,23.20
2022-08-30T18:08:35.822Z,23.20
2022-08-30T18:11:03.002Z,23.10
2022-08-30T18:13:33.117Z,23.10
2022-08-30T18:16:04.935Z,23.10
2022-08-30T18:18:32.471Z,23.10
2022-08-30T18:21:00.622Z,23.10
2022-08-30T18:23:27.647Z,23.10
2022-08-30T18:25:57.808Z,23.10
2022-08-30T18:28:24.754Z,23.10
2022-08-30T18:30:53.751Z,23.10
2022-08-30T18:33:22.668Z,23.10
2022-08-30T18:35:50.768Z,23.10
2022-08-30T18:38:23.793Z,23.10
2022-08-30T18:40:51.078Z,23.10
2022-08-30T18:43:18.022Z,23.00
2022-08-30T18:45:51.360Z,23.00
2022-08-30T18:48:18.775Z,23.00
2022-08-30T18:50:46.635Z,23.00
2022-08-30T18:53:14.637Z,23.00
2022-08-30T18:55:57.367Z,23.00
2022-08-30T18:58:24.153Z,22.90
2022-08-30T19:00:50.975Z,23.00
2022-08-30T19:03:18.198Z,23.00
2022-08-30T19:05:45.948Z,22.90
2022-08-30T19:08:13.549Z,22.90
2022-08-30T19:10:41.163Z,22.80
2022-08-30T19:13:09.443Z,22.80
2022-08-30T19:15:36.569Z,22.80
2022-08-30T19:18:12.900Z,22.80
2022-08-30T19:20:43.720Z,22.70
2022-08-30T19:23:10.595Z,22.70
2022-08-30T19:25:39.233Z,22.70
2022-08-30T19:28:06.058Z,22.70
2022-08-30T19:30:34.632Z,22.70
2022-08-30T19:33:01.557Z,22.60
2022-08-30T19:35:30.089Z,22.60
2022-08-30T19:37:57.513Z,22.60
2022-08-30T19:40:24.380Z,22.60
2022-08-30T19:42:52.573Z,22.50
2022-08-30T19:45:21.732Z,22.50
2022-08-30T19:47:50.728Z,22.50
2022-08-30T19:50:18.691Z,22.40
2022-08-30T19:55:32.481Z,22.40
2022-08-30T19:57:59.344Z,22.40
2022-08-30T20:00:27.100Z,22.40
2022-08-30T20:02:59.312Z,22.30
2022-08-30T20:05:26.403Z,22.30
2022-08-30T20:07:53.235Z,22.30
2022-08-30T20:10:20.413Z,22.30
2022-08-30T20:12:49.894Z,22.30
2022-08-30T20:15:17.982Z,22.20
2022-08-30T20:18:02.498Z,22.10
2022-08-30T20:20:32.118Z,22.10
2022-08-30T20:23:00.270Z,22.10
2022-08-30T20:25:29.047Z,22.10
2022-08-30T20:27:56.019Z,22.10
2022-08-30T20:30:22.787Z,22.00
2022-08-30T20:32:49.551Z,22.00
2022-08-30T20:35:17.203Z,21.90
2022-08-30T20:37:46.925Z,21.90
2022-08-30T20:40:15.989Z,21.90
2022-08-30T20:42:43.143Z,21.90
2022-08-30T20:45:11.566Z,21.80
2022-08-30T20:47:38.499Z,21.80
2022-08-30T20:50:06.983Z,21.80
2022-08-30T20:52:40.823Z,21.70
2022-08-30T20:55:10.763Z,21.70
2022-08-30T20:57:37.990Z,21.70
2022-08-30T21:00:06.368Z,21.60
2022-08-30T21:02:34.392Z,21.60
2022-08-30T21:05:02.746Z,21.60
2022-08-30T21:07:29.699Z,21.60
2022-08-30T21:09:56.784Z,21.60
2022-08-30T21:12:24.951Z,21.60
2022-08-30T21:14:51.771Z,21.50
2022-08-30T21:17:18.758Z,21.50
2022-08-30T21:19:45.539Z,21.50
2022-08-30T21:22:12.325Z,21.50
2022-08-30T21:24:39.155Z,21.40
2022-08-30T21:27:06.355Z,21.40
2022-08-30T21:29:34.506Z,21.40
2022-08-30T21:32:01.317Z,21.30
2022-08-30T21:34:28.196Z,21.30
2022-08-30T21:36:55.171Z,21.30
2022-08-30T21:39:23.850Z,21.20
2022-08-30T21:41:52.767Z,21.30
2022-08-30T21:44:21.991Z,21.30
2022-08-30T21:46:51.439Z,21.30
2022-08-30T21:49:21.810Z,21.20
2022-08-30T21:51:50.017Z,21.20
2022-08-30T21:54:18.494Z,21.20
2022-08-30T21:56:47.205Z,21.20
2022-08-30T21:59:14.225Z,21.20
2022-08-30T22:01:41.889Z,21.20
2022-08-30T22:04:12.027Z,21.10
2022-08-30T22:06:40.566Z,21.20
2022-08-30T22:09:09.816Z,21.20
2022-08-30T22:11:37.296Z,21.10
2022-08-30T22:14:05.290Z,21.20
2022-08-30T22:16:32.443Z,21.20
2022-08-30T22:18:59.474Z,21.20
2022-08-30T22:21:30.147Z,21.20
2022-08-30T22:23:57.370Z,21.10
2022-08-30T22:26:24.793Z,21.10
2022-08-30T22:28:52.664Z,21.20
2022-08-30T22:31:21.417Z,21.10
2022-08-30T22:33:48.519Z,21.10
2022-08-30T22:36:17.906Z,21.10
2022-08-30T22:38:46.031Z,21.10
2022-08-30T22:41:15.679Z,21.10
2022-08-30T22:43:42.923Z,21.00
2022-08-30T22:46:10.932Z,21.00
2022-08-30T22:48:39.830Z,21.00
2022-08-30T22:51:06.894Z,21.10
2022-08-30T22:53:33.942Z,21.10
2022-08-30T22:56:08.210Z,21.10
2022-08-30T22:58:35.025Z,21.00
2022-08-30T23:01:01.894Z,21.00
2022-08-30T23:03:28.736Z,21.00
2022-08-30T23:05:55.478Z,21.00
2022-08-30T23:08:22.243Z,21.10
2022-08-30T23:10:48.991Z,21.00
2022-08-30T23:13:17.233Z,21.00
2022-08-30T23:15:44.082Z,21.00
2022-08-30T23:18:10.891Z,21.00
2022-08-30T23:20:37.646Z,21.10
2022-08-30T23:23:04.435Z,21.10
2022-08-30T23:25:41.287Z,21.10
2022-08-30T23:28:08.811Z,21.10
2022-08-30T23:30:36.940Z,21.00
2022-08-30T23:33:04.739Z,20.90
2022-08-30T23:35:31.476Z,20.90
2022-08-30T23:37:58.796Z,20.90
2022-08-30T23:40:25.751Z,20.90
2022-08-30T23:42:52.683Z,20.90
2022-08-30T23:45:19.495Z,20.90
2022-08-30T23:47:48.189Z,20.90
2022-08-30T23:50:15.099Z,20.90
2022-08-30T23:52:41.856Z,20.90
2022-08-30T23:55:08.813Z,20.90
2022-08-30T23:57:35.583Z,20.90
